Hinsdale, New Hampshire
Current Conditions -  °F | °C
As of 8:15 PM on Thursday 18 Dec 2014 (Local Time) from KEEN Reporting Station
Overcast Overcast  
Wind Chill: 30°   Ceiling: 2900
Heat Index: 36°   Visibility: 10mi
Dew Point: 25°   Wind: 7mph
Humidity: 65%   Direction: 310°NW
Pressure: 29.86"   Gusts: 17mph
Location:  42.79°N, 72.49°W
Report Text: KEEN 190115Z AUTO 31006G15KT 10SM OVC029 02/M04 A2986 RMK AO1
Loading
Personal Weather Stations






























Interactive Weather Map New forecast layout! Learn more

10-Day Weather Forecast

Advertisements
Track Severe Weather on mobile